createdAt,value
2022-08-19T00:05:08.807Z,6.10
2022-08-19T00:15:09.071Z,10.10
2022-08-19T00:25:09.115Z,9.50
2022-08-19T00:35:09.423Z,9.20
2022-08-19T00:45:13.987Z,11.80
2022-08-19T00:55:09.627Z,14.00
2022-08-19T01:05:09.950Z,11.50
2022-08-19T01:15:09.986Z,11.70
2022-08-19T01:25:15.083Z,17.30
2022-08-19T01:35:11.357Z,18.30
2022-08-19T01:45:10.647Z,17.00
2022-08-19T01:55:10.678Z,14.10
2022-08-19T02:05:11.329Z,12.50
2022-08-19T02:15:11.028Z,15.60
2022-08-19T02:25:11.348Z,19.60
2022-08-19T02:35:12.135Z,21.40
2022-08-19T02:45:11.598Z,20.80
2022-08-19T02:55:11.606Z,21.60
2022-08-19T03:05:11.940Z,20.00
2022-08-19T03:15:11.956Z,17.40
2022-08-19T03:25:12.473Z,15.20
2022-08-19T03:35:12.605Z,18.40
2022-08-19T03:45:12.634Z,20.70
2022-08-19T03:55:12.697Z,18.20
2022-08-19T04:05:13.005Z,15.20
2022-08-19T04:15:13.045Z,14.20
2022-08-19T04:25:13.275Z,15.30
2022-08-19T04:35:17.416Z,16.10
2022-08-19T04:45:14.384Z,13.80
2022-08-19T04:55:13.722Z,14.00
2022-08-19T05:05:13.781Z,15.70
2022-08-19T05:15:14.118Z,15.50
2022-08-19T05:25:14.342Z,20.30
2022-08-19T05:35:16.833Z,17.50
2022-08-19T05:45:14.463Z,16.80
2022-08-19T05:55:14.814Z,15.90
2022-08-19T06:05:14.855Z,19.90
2022-08-19T06:15:15.169Z,17.40
2022-08-19T06:25:15.605Z,18.30
2022-08-19T06:35:15.515Z,15.70
2022-08-19T06:45:15.539Z,15.20
2022-08-19T06:55:15.901Z,16.80
2022-08-19T07:05:16.397Z,15.70
2022-08-19T07:15:16.313Z,11.20
2022-08-19T07:25:16.345Z,12.40
2022-08-19T07:35:16.556Z,12.50
2022-08-19T07:45:16.593Z,14.00
2022-08-19T07:55:40.310Z,12.10
2022-08-19T08:05:17.902Z,12.90
2022-08-19T08:15:17.151Z,10.30
2022-08-19T08:25:24.382Z,11.20
2022-08-19T08:35:17.871Z,11.50
2022-08-19T08:45:17.867Z,11.10
2022-08-19T08:55:17.921Z,11.40
2022-08-19T09:05:22.024Z,10.80
2022-08-19T09:15:18.428Z,12.10
2022-08-19T09:25:26.754Z,14.20
2022-08-19T09:35:19.751Z,13.30
2022-08-19T09:45:23.549Z,14.60
2022-08-19T09:55:19.170Z,11.60
2022-08-19T10:05:26.604Z,12.60
2022-08-19T10:15:20.559Z,12.30
2022-08-19T10:25:20.828Z,11.80
2022-08-19T10:35:21.897Z,10.00
2022-08-19T10:45:20.463Z,9.50
2022-08-19T10:55:20.355Z,6.60
2022-08-19T11:05:20.484Z,4.10
2022-08-19T11:15:20.456Z,4.20
2022-08-19T11:25:20.779Z,2.30
2022-08-19T11:35:20.954Z,3.60
2022-08-19T11:45:21.236Z,4.70
2022-08-19T11:55:21.317Z,1.90
2022-08-19T12:05:21.396Z,1.50
2022-08-19T12:15:21.413Z,1.60
2022-08-19T12:25:21.723Z,1.40
2022-08-19T12:35:22.107Z,1.40
2022-08-19T12:45:22.083Z,1.30
2022-08-19T12:55:22.116Z,1.20
2022-08-19T13:05:22.424Z,1.10
2022-08-19T13:15:23.945Z,1.10
2022-08-19T13:25:22.651Z,1.40
2022-08-19T13:35:22.681Z,1.40
2022-08-19T13:45:23.063Z,1.70
2022-08-19T13:55:24.974Z,1.20
2022-08-19T14:05:23.380Z,1.80
2022-08-19T14:15:23.408Z,1.70
2022-08-19T14:25:23.724Z,2.50
2022-08-19T14:35:23.749Z,1.90
2022-08-19T14:45:24.069Z,2.90
2022-08-19T14:55:24.121Z,2.60
2022-08-19T15:05:24.435Z,2.90
2022-08-19T15:15:24.448Z,3.70
2022-08-19T15:25:24.778Z,3.00
2022-08-19T15:35:24.808Z,4.10
2022-08-19T15:45:28.394Z,3.60
2022-08-19T15:55:33.624Z,4.50
2022-08-19T16:05:26.458Z,4.60
2022-08-19T16:15:25.745Z,4.60
2022-08-19T16:25:25.766Z,4.10
2022-08-19T16:35:26.104Z,4.90
2022-08-19T16:45:26.135Z,5.20
2022-08-19T16:55:26.454Z,5.70
2022-08-19T17:05:26.510Z,5.50
2022-08-19T17:15:26.810Z,6.40
2022-08-19T17:25:26.820Z,4.80
2022-08-19T17:35:27.159Z,5.90
2022-08-19T17:45:27.182Z,5.70
2022-08-19T17:55:27.497Z,8.00
2022-08-19T18:05:27.532Z,7.80
2022-08-19T18:15:27.851Z,8.20
2022-08-19T18:25:27.884Z,6.00
2022-08-19T18:35:28.200Z,4.30
2022-08-19T18:45:28.242Z,4.30
2022-08-19T18:55:28.569Z,4.70
2022-08-19T19:05:28.618Z,5.30
2022-08-19T19:15:28.903Z,5.10
2022-08-19T19:25:29.019Z,4.60
2022-08-19T19:35:30.086Z,5.30
2022-08-19T19:45:29.457Z,6.20
2022-08-19T19:55:29.517Z,3.10
2022-08-19T20:05:29.984Z,2.80
2022-08-19T20:15:29.816Z,4.30
2022-08-19T20:25:30.124Z,6.10
2022-08-19T20:35:30.156Z,8.30
2022-08-19T20:45:32.935Z,10.90
2022-08-19T20:55:30.627Z,12.90
2022-08-19T21:05:30.923Z,16.50
2022-08-19T21:15:30.965Z,18.60
2022-08-19T21:25:31.274Z,17.40
2022-08-19T21:35:31.328Z,17.70
2022-08-19T21:45:31.637Z,16.00
2022-08-19T21:55:31.654Z,15.70
2022-08-19T22:05:31.993Z,14.20
2022-08-19T22:15:32.014Z,11.80
2022-08-19T22:25:32.386Z,7.90
2022-08-19T22:35:32.399Z,7.10
2022-08-19T22:45:32.670Z,6.30
2022-08-19T22:55:32.705Z,6.20
2022-08-19T23:05:33.022Z,5.10
2022-08-19T23:15:33.099Z,4.10
2022-08-19T23:25:33.384Z,4.10
2022-08-19T23:35:33.420Z,5.30
2022-08-19T23:45:33.726Z,5.90
2022-08-19T23:55:33.747Z,4.90
